Time;durP1;ratioP1;P1;durP2;ratioP2;P2;SDS_P1;SDS_P2;PMS_P1;PMS_P2;Temp;Humidity;BMP_temperature;BMP_pressure;BME280_temperature;BME280_humidity;BME280_pressure;Samples;Min_cycle;Max_cycle;Signal;HPM_P1;HPM_P2
2023/11/29 00:00:07;;;;;;;13.60;7.15;;;;;;;;;;5068969;28;20662;-57
2023/11/29 00:02:33;;;;;;;19.00;10.70;;;;;;;;;;5070126;28;20021;-55
2023/11/29 00:04:59;;;;;;;21.77;13.55;;;;;;;;;;5069740;28;20044;-58
2023/11/29 00:07:25;;;;;;;16.40;9.75;;;;;;;;;;5070233;28;20028;-60
2023/11/29 00:09:51;;;;;;;15.07;10.40;;;;;;;;;;5069945;28;20035;-61
2023/11/29 00:12:17;;;;;;;14.25;9.85;;;;;;;;;;5063374;28;20074;-60
2023/11/29 00:14:43;;;;;;;20.45;11.68;;;;;;;;;;5050905;28;20032;-59
2023/11/29 00:17:10;;;;;;;16.50;10.45;;;;;;;;;;5051882;28;20056;-59
2023/11/29 00:19:37;;;;;;;14.85;10.93;;;;;;;;;;5053330;28;20098;-56
2023/11/29 00:22:04;;;;;;;19.08;14.05;;;;;;;;;;5052952;28;20032;-61
2023/11/29 00:24:30;;;;;;;14.05;9.55;;;;;;;;;;5053445;28;20025;-62
2023/11/29 00:26:56;;;;;;;16.17;10.77;;;;;;;;;;5053192;28;20029;-58
2023/11/29 00:29:24;;;;;;;19.70;11.93;;;;;;;;;;5053001;28;20017;-57
2023/11/29 00:31:50;;;;;;;15.40;10.48;;;;;;;;;;5052985;28;20028;-57
2023/11/29 00:34:16;;;;;;;14.60;10.15;;;;;;;;;;5053089;28;20029;-60
2023/11/29 00:36:42;;;;;;;17.70;13.52;;;;;;;;;;5053428;28;20100;-59
2023/11/29 00:39:08;;;;;;;20.13;10.85;;;;;;;;;;5052684;28;20463;-60
2023/11/29 00:41:34;;;;;;;16.60;12.25;;;;;;;;;;5052203;28;20100;-59
2023/11/29 00:44:00;;;;;;;16.92;11.18;;;;;;;;;;5052507;28;20025;-60
2023/11/29 00:46:26;;;;;;;17.58;12.93;;;;;;;;;;5052575;28;20025;-59
2023/11/29 00:48:52;;;;;;;18.58;11.27;;;;;;;;;;5052440;28;20390;-60
2023/11/29 00:51:18;;;;;;;18.50;11.85;;;;;;;;;;5051829;28;20387;-60
2023/11/29 00:53:44;;;;;;;18.17;13.43;;;;;;;;;;5052095;28;20017;-61
2023/11/29 00:56:10;;;;;;;15.90;11.98;;;;;;;;;;5050645;28;20437;-62
2023/11/29 00:58:36;;;;;;;14.82;11.55;;;;;;;;;;5052521;28;20052;-62
2023/11/29 01:01:02;;;;;;;16.30;12.93;;;;;;;;;;5051867;28;20063;-61
2023/11/29 01:03:28;;;;;;;16.52;14.75;;;;;;;;;;5052137;28;20083;-60
2023/11/29 01:05:54;;;;;;;16.17;13.88;;;;;;;;;;5052221;28;20052;-63
2023/11/29 01:08:25;;;;;;;17.48;14.90;;;;;;;;;;5051810;28;20360;-64
2023/11/29 01:10:54;;;;;;;17.45;14.82;;;;;;;;;;5051366;28;20088;-59
2023/11/29 01:13:21;;;;;;;18.15;15.95;;;;;;;;;;5050810;28;20037;-61
2023/11/29 01:15:47;;;;;;;19.10;14.48;;;;;;;;;;5051963;28;20025;-56
2023/11/29 01:18:14;;;;;;;18.27;15.73;;;;;;;;;;5051733;28;20041;-59
2023/11/29 01:20:41;;;;;;;16.75;15.00;;;;;;;;;;5050030;28;20029;-61
2023/11/29 01:23:07;;;;;;;17.35;15.55;;;;;;;;;;5051222;28;20025;-59
2023/11/29 01:25:34;;;;;;;19.88;17.98;;;;;;;;;;5051993;28;20040;-61
2023/11/29 01:28:01;;;;;;;19.80;16.40;;;;;;;;;;5051788;28;20105;-61
2023/11/29 01:30:27;;;;;;;17.88;15.98;;;;;;;;;;5051426;28;20025;-58
2023/11/29 01:32:53;;;;;;;18.67;16.70;;;;;;;;;;5051613;28;20021;-59
2023/11/29 01:35:19;;;;;;;19.13;17.17;;;;;;;;;;5052279;28;20582;-59
2023/11/29 01:37:45;;;;;;;19.67;17.67;;;;;;;;;;5051446;28;20104;-62
2023/11/29 01:40:11;;;;;;;18.83;16.70;;;;;;;;;;5049855;28;20031;-62
2023/11/29 01:42:37;;;;;;;25.88;20.48;;;;;;;;;;5050241;28;20494;-60
2023/11/29 01:45:04;;;;;;;19.88;17.77;;;;;;;;;;5052019;28;20032;-60
2023/11/29 01:47:34;;;;;;;18.02;16.23;;;;;;;;;;5057312;28;20025;-59
2023/11/29 01:50:01;;;;;;;20.77;18.25;;;;;;;;;;5053588;28;20029;-60
2023/11/29 01:52:28;;;;;;;16.75;14.98;;;;;;;;;;5050514;28;20611;-61
2023/11/29 01:54:54;;;;;;;21.08;17.65;;;;;;;;;;5051200;28;20495;-60
2023/11/29 01:57:20;;;;;;;19.27;16.30;;;;;;;;;;5049884;28;20043;-60
2023/11/29 01:59:47;;;;;;;19.50;16.35;;;;;;;;;;5050729;28;20048;-61
2023/11/29 02:02:13;;;;;;;16.58;14.77;;;;;;;;;;5050537;28;20399;-60
2023/11/29 02:04:39;;;;;;;18.92;16.70;;;;;;;;;;5051091;28;20051;-61
2023/11/29 02:07:05;;;;;;;17.88;15.70;;;;;;;;;;5049127;28;20017;-60
2023/11/29 02:09:31;;;;;;;19.17;15.63;;;;;;;;;;5050805;28;20065;-59
2023/11/29 02:11:59;;;;;;;21.60;15.90;;;;;;;;;;5049045;28;20040;-56
2023/11/29 02:14:25;;;;;;;20.20;15.90;;;;;;;;;;5050670;28;20156;-60
2023/11/29 02:16:51;;;;;;;19.40;17.30;;;;;;;;;;5050615;28;20033;-59
2023/11/29 02:19:17;;;;;;;20.15;18.15;;;;;;;;;;5050283;28;20471;-60
2023/11/29 02:21:43;;;;;;;20.17;17.10;;;;;;;;;;5050128;28;20044;-61
2023/11/29 02:24:16;;;;;;;20.17;16.67;;;;;;;;;;5049548;28;20036;-61
2023/11/29 02:26:42;;;;;;;20.90;16.13;;;;;;;;;;5050705;28;20651;-60
2023/11/29 02:29:08;;;;;;;17.90;15.98;;;;;;;;;;5050369;28;20029;-59
2023/11/29 02:31:34;;;;;;;16.40;14.27;;;;;;;;;;5048427;28;20017;-61
2023/11/29 02:34:02;;;;;;;18.00;15.70;;;;;;;;;;5050577;28;20047;-58
2023/11/29 02:36:28;;;;;;;17.95;15.82;;;;;;;;;;5050397;28;20031;-60
2023/11/29 02:38:54;;;;;;;19.15;17.10;;;;;;;;;;5050218;28;20064;-61
2023/11/29 02:41:20;;;;;;;23.48;21.08;;;;;;;;;;5049679;28;20033;-59
2023/11/29 02:43:50;;;;;;;25.05;21.20;;;;;;;;;;5050403;28;20035;-61
2023/11/29 02:46:16;;;;;;;18.88;16.90;;;;;;;;;;5048699;28;20025;-61
2023/11/29 02:48:42;;;;;;;22.88;20.77;;;;;;;;;;5049676;28;20029;-64
2023/11/29 02:51:08;;;;;;;18.33;16.48;;;;;;;;;;5048782;28;20018;-62
2023/11/29 02:53:34;;;;;;;24.02;19.30;;;;;;;;;;5049799;28;20359;-61
2023/11/29 02:56:00;;;;;;;17.50;15.70;;;;;;;;;;5048985;28;20067;-63
2023/11/29 02:58:26;;;;;;;21.20;19.20;;;;;;;;;;5050266;28;20032;-64
2023/11/29 03:00:53;;;;;;;24.02;20.25;;;;;;;;;;5049440;28;20475;-63
2023/11/29 03:03:19;;;;;;;20.45;18.45;;;;;;;;;;5049931;28;20025;-64
2023/11/29 03:05:45;;;;;;;19.92;18.02;;;;;;;;;;5049927;28;20471;-64
2023/11/29 03:08:11;;;;;;;26.33;22.95;;;;;;;;;;5049772;28;20025;-63
2023/11/29 03:10:37;;;;;;;22.95;20.25;;;;;;;;;;5049185;28;20029;-64
2023/11/29 03:13:03;;;;;;;20.60;18.13;;;;;;;;;;5049824;28;20017;-64
2023/11/29 03:15:29;;;;;;;20.17;18.17;;;;;;;;;;5049793;28;20021;-64
2023/11/29 03:17:55;;;;;;;21.05;18.83;;;;;;;;;;5049389;28;20029;-64
2023/11/29 03:20:21;;;;;;;22.35;19.00;;;;;;;;;;5049657;28;20100;-63
2023/11/29 03:22:47;;;;;;;19.15;17.13;;;;;;;;;;5050544;28;20059;-59
2023/11/29 03:25:13;;;;;;;18.50;16.60;;;;;;;;;;5050167;28;20056;-63
2023/11/29 03:27:39;;;;;;;24.90;21.33;;;;;;;;;;5050018;28;20486;-63
2023/11/29 03:30:05;;;;;;;19.73;17.70;;;;;;;;;;5048695;28;20052;-65
2023/11/29 03:32:31;;;;;;;20.73;17.38;;;;;;;;;;5049648;28;20476;-64
2023/11/29 03:34:57;;;;;;;20.25;18.05;;;;;;;;;;5050184;28;20047;-64
2023/11/29 03:37:23;;;;;;;18.10;16.23;;;;;;;;;;5050045;28;20029;-64
2023/11/29 03:39:49;;;;;;;20.00;17.98;;;;;;;;;;5049488;28;20056;-64
2023/11/29 03:42:15;;;;;;;18.08;16.27;;;;;;;;;;5049503;28;20021;-63
2023/11/29 03:44:41;;;;;;;18.05;16.20;;;;;;;;;;5049204;28;20056;-64
2023/11/29 03:47:07;;;;;;;18.65;16.45;;;;;;;;;;5049113;28;20387;-63
2023/11/29 03:49:33;;;;;;;27.25;19.40;;;;;;;;;;5048923;28;20017;-64
2023/11/29 03:51:59;;;;;;;20.60;18.50;;;;;;;;;;5048499;28;20029;-61
2023/11/29 03:54:25;;;;;;;22.38;20.17;;;;;;;;;;5048223;28;20044;-61
2023/11/29 03:56:51;;;;;;;25.08;22.67;;;;;;;;;;5049205;28;20465;-62
2023/11/29 03:59:17;;;;;;;19.40;17.50;;;;;;;;;;5050017;28;20116;-64
2023/11/29 04:01:43;;;;;;;19.40;17.45;;;;;;;;;;5054493;28;20021;-64
2023/11/29 04:04:09;;;;;;;18.58;16.67;;;;;;;;;;5049862;28;20036;-63
2023/11/29 04:06:35;;;;;;;17.55;15.75;;;;;;;;;;5049595;28;20017;-63
2023/11/29 04:09:02;;;;;;;18.00;16.20;;;;;;;;;;5048870;28;20025;-63
2023/11/29 04:11:29;;;;;;;19.23;17.33;;;;;;;;;;5048387;28;20044;-62
2023/11/29 04:13:54;;;;;;;20.70;18.55;;;;;;;;;;5049610;28;20021;-63
2023/11/29 04:16:21;;;;;;;23.00;19.92;;;;;;;;;;5049623;28;20035;-63
2023/11/29 04:18:48;;;;;;;20.48;18.38;;;;;;;;;;5049319;28;20491;-64
2023/11/29 04:21:27;;;;;;;22.38;20.20;;;;;;;;;;5049303;28;20394;-61
2023/11/29 04:23:54;;;;;;;20.15;18.25;;;;;;;;;;5050078;28;20028;-63
2023/11/29 04:26:23;;;;;;;21.77;19.77;;;;;;;;;;5069504;28;20490;-64
2023/11/29 04:28:49;;;;;;;20.50;18.35;;;;;;;;;;5067493;28;20080;-65
2023/11/29 04:31:15;;;;;;;25.30;19.10;;;;;;;;;;5071720;28;20021;-65
2023/11/29 04:33:41;;;;;;;21.40;18.83;;;;;;;;;;5072504;28;20024;-64
2023/11/29 04:36:07;;;;;;;19.02;16.48;;;;;;;;;;5072423;28;20020;-64
2023/11/29 04:38:33;;;;;;;25.30;19.52;;;;;;;;;;5072426;28;20029;-65
2023/11/29 04:40:59;;;;;;;20.95;18.77;;;;;;;;;;5071892;28;20028;-64
2023/11/29 04:43:25;;;;;;;21.38;18.13;;;;;;;;;;5072482;28;20056;-65
2023/11/29 04:45:51;;;;;;;18.70;16.17;;;;;;;;;;5072494;28;20025;-65
2023/11/29 04:48:16;;;;;;;25.83;18.95;;;;;;;;;;5070764;28;20037;-64
2023/11/29 04:50:42;;;;;;;21.08;17.65;;;;;;;;;;5071648;28;20477;-64
2023/11/29 04:53:08;;;;;;;19.60;17.60;;;;;;;;;;5072113;28;20025;-64
2023/11/29 04:55:35;;;;;;;19.67;17.77;;;;;;;;;;5072221;28;20557;-63
2023/11/29 04:58:01;;;;;;;22.17;18.85;;;;;;;;;;5070166;28;20056;-64
2023/11/29 05:00:27;;;;;;;21.55;18.45;;;;;;;;;;5071273;28;20055;-61
2023/11/29 05:02:53;;;;;;;17.05;15.20;;;;;;;;;;5072085;28;20021;-63
2023/11/29 05:05:19;;;;;;;18.42;15.13;;;;;;;;;;5071541;28;20032;-64
2023/11/29 05:07:45;;;;;;;26.42;15.98;;;;;;;;;;5071795;28;20020;-64
2023/11/29 05:10:11;;;;;;;18.70;15.82;;;;;;;;;;5071207;28;20393;-67
2023/11/29 05:12:36;;;;;;;21.77;17.33;;;;;;;;;;5072300;28;20029;-66
2023/11/29 05:15:04;;;;;;;19.02;16.45;;;;;;;;;;5072024;28;20048;-65
2023/11/29 05:17:30;;;;;;;25.92;16.35;;;;;;;;;;5071727;28;20102;-64
2023/11/29 05:19:56;;;;;;;18.05;16.13;;;;;;;;;;5070190;28;20424;-64
2023/11/29 05:22:22;;;;;;;18.52;16.10;;;;;;;;;;5070367;28;20028;-64
2023/11/29 05:24:48;;;;;;;19.60;17.60;;;;;;;;;;5071773;28;20450;-64
2023/11/29 05:27:14;;;;;;;22.45;19.23;;;;;;;;;;5071369;28;20034;-65
2023/11/29 05:29:40;;;;;;;17.67;15.77;;;;;;;;;;5071692;28;20044;-63
2023/11/29 05:32:06;;;;;;;23.15;18.73;;;;;;;;;;5070116;28;20040;-66
2023/11/29 05:34:32;;;;;;;18.52;16.58;;;;;;;;;;5071621;28;20091;-66
2023/11/29 05:36:58;;;;;;;19.52;16.63;;;;;;;;;;5071000;28;20033;-65
2023/11/29 05:39:24;;;;;;;23.48;18.08;;;;;;;;;;5069750;28;20048;-65
2023/11/29 05:41:50;;;;;;;18.30;16.40;;;;;;;;;;5069307;28;20025;-65
2023/11/29 05:44:16;;;;;;;19.40;16.90;;;;;;;;;;5071343;28;20417;-65
2023/11/29 05:46:43;;;;;;;20.58;17.55;;;;;;;;;;5072822;28;20017;-66
2023/11/29 05:49:09;;;;;;;19.10;16.33;;;;;;;;;;5071619;28;20112;-65
2023/11/29 05:51:36;;;;;;;17.00;14.95;;;;;;;;;;5070640;28;20098;-65
2023/11/29 05:54:02;;;;;;;16.90;15.10;;;;;;;;;;5071124;28;20099;-66
2023/11/29 05:56:28;;;;;;;20.70;16.23;;;;;;;;;;5071210;28;20055;-66
2023/11/29 05:58:54;;;;;;;21.08;18.90;;;;;;;;;;5070987;28;20031;-66
2023/11/29 06:01:20;;;;;;;22.23;20.15;;;;;;;;;;5070281;28;20490;-65
2023/11/29 06:03:46;;;;;;;27.65;22.70;;;;;;;;;;5069673;28;20029;-67
2023/11/29 06:06:13;;;;;;;23.70;21.40;;;;;;;;;;5069967;28;20082;-64
2023/11/29 06:08:40;;;;;;;24.08;21.77;;;;;;;;;;5071621;28;20020;-65
2023/11/29 06:11:07;;;;;;;23.65;21.40;;;;;;;;;;5070996;28;20450;-65
2023/11/29 06:13:33;;;;;;;24.13;21.85;;;;;;;;;;5072471;28;20038;-65
2023/11/29 06:15:59;;;;;;;27.83;25.02;;;;;;;;;;5070693;28;20457;-66
2023/11/29 06:18:25;;;;;;;27.00;24.40;;;;;;;;;;5071768;28;20036;-66
2023/11/29 06:20:52;;;;;;;22.45;20.25;;;;;;;;;;5070745;28;20070;-67
2023/11/29 06:23:18;;;;;;;27.27;24.73;;;;;;;;;;5072236;28;20033;-66
2023/11/29 06:25:44;;;;;;;28.10;25.60;;;;;;;;;;5071694;28;20028;-66
2023/11/29 06:28:10;;;;;;;30.88;27.83;;;;;;;;;;5071372;28;20162;-64
2023/11/29 06:30:36;;;;;;;26.33;24.02;;;;;;;;;;5071873;28;20025;-63
2023/11/29 06:33:02;;;;;;;31.80;28.27;;;;;;;;;;5073326;28;20020;-66
2023/11/29 06:35:28;;;;;;;26.60;24.20;;;;;;;;;;5072548;28;20447;-63
2023/11/29 06:37:54;;;;;;;23.92;21.73;;;;;;;;;;5072455;28;20143;-61
2023/11/29 06:40:20;;;;;;;22.90;20.80;;;;;;;;;;5071422;28;20806;-65
2023/11/29 06:42:47;;;;;;;27.05;24.55;;;;;;;;;;5072726;28;20066;-61
2023/11/29 06:45:17;;;;;;;29.00;26.38;;;;;;;;;;5073651;28;20028;-64
2023/11/29 06:47:44;;;;;;;30.40;27.15;;;;;;;;;;5072686;28;20039;-63
2023/11/29 06:50:10;;;;;;;25.60;23.13;;;;;;;;;;5075038;28;20410;-64
2023/11/29 06:52:38;;;;;;;28.08;25.42;;;;;;;;;;5075655;28;20392;-64
2023/11/29 06:55:05;;;;;;;23.35;21.25;;;;;;;;;;5076170;28;20103;-62
2023/11/29 06:57:31;;;;;;;24.52;22.42;;;;;;;;;;5077827;28;20028;-62
2023/11/29 07:00:03;;;;;;;29.58;26.65;;;;;;;;;;5076129;28;20032;-64
2023/11/29 07:02:29;;;;;;;24.45;22.17;;;;;;;;;;5076735;28;20062;-64
2023/11/29 07:04:55;;;;;;;28.58;24.23;;;;;;;;;;5077442;28;20587;-60
2023/11/29 07:07:21;;;;;;;27.63;25.35;;;;;;;;;;5076370;28;20055;-62
2023/11/29 07:09:47;;;;;;;24.55;22.15;;;;;;;;;;5075827;28;20070;-64
2023/11/29 07:12:13;;;;;;;24.23;22.13;;;;;;;;;;5076187;28;20212;-63
2023/11/29 07:14:39;;;;;;;25.15;22.95;;;;;;;;;;5078092;28;20059;-62
2023/11/29 07:17:06;;;;;;;27.63;24.92;;;;;;;;;;5076728;28;20021;-61
2023/11/29 07:19:33;;;;;;;23.38;21.27;;;;;;;;;;5077686;28;20039;-64
2023/11/29 07:21:59;;;;;;;29.17;26.55;;;;;;;;;;5075264;28;20029;-62
2023/11/29 07:24:25;;;;;;;25.48;23.17;;;;;;;;;;5078180;28;20073;-63
2023/11/29 07:26:51;;;;;;;28.17;25.67;;;;;;;;;;5075909;28;20024;-62
2023/11/29 07:29:17;;;;;;;28.08;25.38;;;;;;;;;;5076706;28;20017;-61
2023/11/29 07:31:47;;;;;;;28.88;26.38;;;;;;;;;;5076487;28;20035;-66
2023/11/29 07:34:13;;;;;;;33.10;27.67;;;;;;;;;;5069215;28;20020;-61
2023/11/29 07:36:42;;;;;;;31.80;28.48;;;;;;;;;;5059754;28;20099;-61
2023/11/29 07:39:09;;;;;;;30.23;27.27;;;;;;;;;;5075984;28;20032;-62
2023/11/29 07:41:35;;;;;;;27.90;25.42;;;;;;;;;;5069903;28;20041;-62
2023/11/29 07:44:01;;;;;;;28.42;25.83;;;;;;;;;;5055493;28;20093;-60
2023/11/29 07:46:27;;;;;;;34.40;31.33;;;;;;;;;;5056639;28;20070;-63
2023/11/29 07:48:53;;;;;;;34.35;31.15;;;;;;;;;;5055996;28;20052;-62
2023/11/29 07:51:21;;;;;;;27.35;25.02;;;;;;;;;;5070787;28;20031;-63
2023/11/29 07:53:47;;;;;;;;;;;;;;;;;;5076518;28;20020;-63
2023/11/29 07:56:13;;;;;;;29.20;26.58;;;;;;;;;;5076036;28;19908;-64
2023/11/29 07:58:39;;;;;;;30.05;27.33;;;;;;;;;;5075399;28;20453;-66
2023/11/29 08:01:05;;;;;;;28.27;25.88;;;;;;;;;;5073406;28;20036;-64
2023/11/29 08:03:31;;;;;;;31.33;28.48;;;;;;;;;;5074834;28;20024;-66
2023/11/29 08:05:57;;;;;;;28.70;26.20;;;;;;;;;;5080768;28;20043;-62
2023/11/29 08:08:24;;;;;;;31.05;28.08;;;;;;;;;;5065602;28;20336;-61
2023/11/29 08:10:50;;;;;;;30.75;27.35;;;;;;;;;;5060175;28;20100;-65
2023/11/29 08:13:16;;;;;;;27.50;25.08;;;;;;;;;;5061422;28;20051;-64
2023/11/29 08:15:42;;;;;;;26.50;24.13;;;;;;;;;;5060390;28;20509;-63
2023/11/29 08:18:09;;;;;;;26.30;23.95;;;;;;;;;;5060580;28;20047;-64
2023/11/29 08:20:35;;;;;;;24.95;22.75;;;;;;;;;;5060752;28;20370;-63
2023/11/29 08:23:01;;;;;;;29.30;26.58;;;;;;;;;;5061085;28;20588;-61
2023/11/29 08:25:27;;;;;;;27.85;25.15;;;;;;;;;;5061566;28;20044;-63
2023/11/29 08:27:53;;;;;;;27.23;24.67;;;;;;;;;;5061425;28;20052;-62
2023/11/29 08:30:19;;;;;;;24.13;21.95;;;;;;;;;;5060583;28;20081;-61
2023/11/29 08:32:46;;;;;;;26.08;23.38;;;;;;;;;;5061543;28;20487;-61
2023/11/29 08:35:12;;;;;;;24.40;22.20;;;;;;;;;;5080279;28;20070;-61
2023/11/29 08:37:38;;;;;;;22.52;20.42;;;;;;;;;;5079447;28;20021;-63
2023/11/29 08:40:05;;;;;;;26.10;23.58;;;;;;;;;;5078578;28;20086;-62
2023/11/29 08:42:31;;;;;;;27.02;24.50;;;;;;;;;;5076657;28;20123;-58
2023/11/29 08:44:58;;;;;;;26.20;23.70;;;;;;;;;;5072421;28;20055;-54
2023/11/29 08:47:24;;;;;;;26.52;23.90;;;;;;;;;;5071508;28;20032;-55
2023/11/29 08:49:50;;;;;;;25.08;21.83;;;;;;;;;;5070729;28;20021;-55
2023/11/29 08:52:18;;;;;;;25.83;23.27;;;;;;;;;;5072779;28;20025;-55
2023/11/29 08:54:47;;;;;;;22.88;20.52;;;;;;;;;;5071889;28;20482;-56
2023/11/29 08:57:13;;;;;;;22.25;19.90;;;;;;;;;;5071952;28;20025;-58
2023/11/29 08:59:39;;;;;;;20.60;18.50;;;;;;;;;;5072176;28;20409;-55
2023/11/29 09:02:05;;;;;;;21.48;19.27;;;;;;;;;;5071653;28;20033;-54
2023/11/29 09:04:31;;;;;;;19.58;17.67;;;;;;;;;;5072287;28;20124;-56
2023/11/29 09:06:59;;;;;;;20.35;18.25;;;;;;;;;;5070990;28;20027;-58
2023/11/29 09:09:25;;;;;;;18.80;16.90;;;;;;;;;;5051570;28;20651;-51
2023/11/29 09:11:51;;;;;;;18.55;16.73;;;;;;;;;;5053299;28;20032;-55
2023/11/29 09:14:17;;;;;;;21.85;19.65;;;;;;;;;;5054116;28;20029;-53
2023/11/29 09:16:43;;;;;;;18.60;16.75;;;;;;;;;;5051012;28;20585;-55
2023/11/29 09:19:10;;;;;;;18.67;16.77;;;;;;;;;;5051542;28;20041;-55
2023/11/29 09:21:36;;;;;;;18.63;16.52;;;;;;;;;;5050794;28;20096;-58
2023/11/29 09:24:04;;;;;;;20.25;18.15;;;;;;;;;;5050137;28;20028;-53
2023/11/29 09:26:30;;;;;;;21.90;19.08;;;;;;;;;;5051232;28;20025;-54
2023/11/29 09:28:56;;;;;;;17.05;15.25;;;;;;;;;;5051232;28;20063;-56
2023/11/29 09:31:22;;;;;;;18.75;16.85;;;;;;;;;;5050704;28;20025;-53
2023/11/29 09:33:48;;;;;;;18.65;16.58;;;;;;;;;;5055721;28;20020;-52
2023/11/29 09:36:15;;;;;;;17.60;15.60;;;;;;;;;;5069811;28;20385;-50
2023/11/29 09:38:41;;;;;;;19.67;17.67;;;;;;;;;;5068732;28;20032;-54
2023/11/29 09:41:07;;;;;;;18.13;16.27;;;;;;;;;;5069788;28;20179;-53
2023/11/29 09:43:34;;;;;;;17.80;16.00;;;;;;;;;;5068746;28;20020;-54
2023/11/29 09:46:00;;;;;;;18.00;16.13;;;;;;;;;;5070175;28;20025;-57
2023/11/29 09:48:27;;;;;;;18.05;16.15;;;;;;;;;;5069736;28;20020;-56
2023/11/29 09:50:53;;;;;;;16.98;15.20;;;;;;;;;;5068793;28;20016;-55
2023/11/29 09:53:19;;;;;;;16.08;14.38;;;;;;;;;;5071014;28;20123;-58
2023/11/29 09:55:45;;;;;;;16.55;14.80;;;;;;;;;;5070499;28;20031;-55
2023/11/29 09:58:12;;;;;;;16.35;14.65;;;;;;;;;;5069757;28;20406;-53
2023/11/29 10:00:38;;;;;;;16.02;14.32;;;;;;;;;;5070295;28;20032;-56
2023/11/29 10:03:12;;;;;;;15.50;13.45;;;;;;;;;;5070813;28;20021;-57
2023/11/29 10:05:43;;;;;;;17.17;15.38;;;;;;;;;;5070758;28;20101;-52
2023/11/29 10:08:09;;;;;;;16.08;14.38;;;;;;;;;;5070659;28;20029;-55
2023/11/29 10:10:36;;;;;;;16.70;14.90;;;;;;;;;;5068547;28;20016;-54
2023/11/29 10:13:03;;;;;;;17.77;15.05;;;;;;;;;;5070546;28;20020;-55
2023/11/29 10:15:30;;;;;;;16.85;15.15;;;;;;;;;;5070772;28;20059;-58
2023/11/29 10:17:56;;;;;;;20.40;16.10;;;;;;;;;;5070495;28;20033;-57
2023/11/29 10:20:25;;;;;;;16.20;14.50;;;;;;;;;;5069525;28;20570;-55
2023/11/29 10:22:52;;;;;;;19.10;17.20;;;;;;;;;;5070351;28;20024;-55
2023/11/29 10:25:19;;;;;;;18.05;16.15;;;;;;;;;;5070252;28;20089;-56
2023/11/29 10:27:45;;;;;;;15.60;13.90;;;;;;;;;;5069266;28;20025;-57
2023/11/29 10:30:13;;;;;;;18.25;16.38;;;;;;;;;;5069424;28;20101;-57
2023/11/29 10:32:39;;;;;;;18.27;15.45;;;;;;;;;;5069256;28;20028;-50
2023/11/29 10:35:07;;;;;;;21.30;15.35;;;;;;;;;;5070087;28;20390;-58
2023/11/29 10:37:34;;;;;;;15.30;13.35;;;;;;;;;;5069685;28;20021;-57
2023/11/29 10:40:01;;;;;;;21.83;16.35;;;;;;;;;;5067910;28;20037;-59
2023/11/29 10:42:27;;;;;;;17.17;15.38;;;;;;;;;;5069163;28;20025;-56
2023/11/29 10:44:53;;;;;;;19.33;15.85;;;;;;;;;;5070115;28;20035;-57
2023/11/29 10:47:22;;;;;;;16.98;15.18;;;;;;;;;;5068519;28;20402;-57
2023/11/29 10:49:49;;;;;;;17.98;15.68;;;;;;;;;;5070005;28;20031;-58
2023/11/29 10:52:18;;;;;;;19.20;16.17;;;;;;;;;;5069380;28;20024;-53
2023/11/29 10:54:46;;;;;;;17.42;14.43;;;;;;;;;;5069755;28;20016;-58
2023/11/29 10:57:14;;;;;;;18.70;16.60;;;;;;;;;;5063413;28;20017;-58
2023/11/29 10:59:42;;;;;;;17.10;15.30;;;;;;;;;;5048337;28;20080;-58
2023/11/29 11:02:08;;;;;;;18.83;17.02;;;;;;;;;;5049834;28;20387;-57
2023/11/29 11:04:35;;;;;;;17.80;16.00;;;;;;;;;;5065500;28;20016;-55
2023/11/29 11:07:02;;;;;;;19.45;17.35;;;;;;;;;;5069447;28;20069;-58
2023/11/29 11:09:28;;;;;;;17.17;15.47;;;;;;;;;;5067891;28;20107;-57
2023/11/29 11:11:55;;;;;;;18.33;16.38;;;;;;;;;;5067508;28;20024;-57
2023/11/29 11:14:22;;;;;;;19.92;17.92;;;;;;;;;;5069129;28;20492;-54
2023/11/29 11:16:57;;;;;;;17.35;14.60;;;;;;;;;;5069396;28;20170;-57
2023/11/29 11:19:49;;;;;;;15.10;12.38;;;;;;;;;;5069042;28;20033;-55
2023/11/29 11:22:25;;;;;;;16.15;13.48;;;;;;;;;;5066702;28;20506;-59
2023/11/29 11:24:51;;;;;;;22.45;14.63;;;;;;;;;;5069546;28;20025;-57
2023/11/29 11:27:17;;;;;;;17.35;12.57;;;;;;;;;;5067867;28;20085;-56
2023/11/29 11:29:43;;;;;;;15.52;12.77;;;;;;;;;;5068860;28;20024;-58
2023/11/29 11:32:10;;;;;;;15.13;11.77;;;;;;;;;;5059432;28;20029;-56
2023/11/29 11:34:39;;;;;;;15.20;12.05;;;;;;;;;;5047998;28;20041;-57
2023/11/29 11:37:06;;;;;;;18.30;13.27;;;;;;;;;;5047655;28;20032;-55
2023/11/29 11:39:32;;;;;;;16.40;11.80;;;;;;;;;;5049922;28;20028;-59
2023/11/29 11:41:58;;;;;;;16.05;11.18;;;;;;;;;;5050903;28;20025;-55
2023/11/29 11:44:25;;;;;;;14.80;10.68;;;;;;;;;;5044404;28;20200;-54
2023/11/29 11:46:51;;;;;;;14.75;9.30;;;;;;;;;;5051275;28;20021;-55
2023/11/29 11:49:17;;;;;;;14.25;9.82;;;;;;;;;;5052170;28;20025;-55
2023/11/29 11:51:43;;;;;;;14.43;9.55;;;;;;;;;;5053046;28;20025;-59
2023/11/29 11:54:09;;;;;;;14.10;9.10;;;;;;;;;;5053140;28;20118;-56
2023/11/29 11:56:35;;;;;;;15.15;10.82;;;;;;;;;;5065534;28;20533;-56
2023/11/29 11:59:01;;;;;;;14.88;10.50;;;;;;;;;;5073008;28;20035;-57
2023/11/29 12:01:31;;;;;;;13.98;9.45;;;;;;;;;;5066338;28;20028;-55
2023/11/29 12:03:57;;;;;;;13.68;8.93;;;;;;;;;;5066627;28;20099;-57
2023/11/29 12:06:23;;;;;;;13.75;9.05;;;;;;;;;;5056524;28;20187;-57
2023/11/29 12:08:49;;;;;;;14.23;9.30;;;;;;;;;;5053037;28;20550;-57
2023/11/29 12:11:16;;;;;;;14.13;9.93;;;;;;;;;;5071888;28;20048;-56
2023/11/29 12:13:43;;;;;;;13.75;8.43;;;;;;;;;;5072887;28;20040;-53
2023/11/29 12:16:13;;;;;;;13.75;8.70;;;;;;;;;;5072106;28;20048;-57
2023/11/29 12:18:39;;;;;;;13.65;8.82;;;;;;;;;;5073747;28;20044;-57
2023/11/29 12:21:05;;;;;;;14.00;9.55;;;;;;;;;;5071157;28;20492;-56
2023/11/29 12:23:31;;;;;;;14.15;9.57;;;;;;;;;;5072222;28;20146;-55
2023/11/29 12:25:57;;;;;;;13.90;9.40;;;;;;;;;;5071935;28;20028;-56
2023/11/29 12:28:24;;;;;;;16.08;10.10;;;;;;;;;;5071467;28;20033;-58
2023/11/29 12:30:53;;;;;;;14.60;10.00;;;;;;;;;;5070962;28;20051;-59
2023/11/29 12:33:19;;;;;;;;;;;;;;;;;;5072468;28;20028;-54
2023/11/29 12:35:45;;;;;;;13.77;9.10;;;;;;;;;;5062232;28;20306;-54
2023/11/29 12:38:11;;;;;;;14.95;9.85;;;;;;;;;;5071721;28;20051;-56
2023/11/29 12:40:37;;;;;;;13.60;8.68;;;;;;;;;;5071402;28;20119;-57
2023/11/29 12:43:03;;;;;;;13.70;8.95;;;;;;;;;;5072224;28;20060;-55
2023/11/29 12:45:29;;;;;;;14.20;9.18;;;;;;;;;;5071895;28;20033;-58
2023/11/29 12:48:00;;;;;;;16.23;10.20;;;;;;;;;;5070496;28;20462;-55
2023/11/29 12:50:28;;;;;;;15.13;10.15;;;;;;;;;;5069902;28;20021;-58
2023/11/29 12:52:54;;;;;;;13.80;8.77;;;;;;;;;;5070412;28;20025;-56
2023/11/29 12:55:20;;;;;;;16.40;9.25;;;;;;;;;;5071522;28;20034;-57
2023/11/29 12:57:46;;;;;;;15.30;9.80;;;;;;;;;;5073367;28;20472;-54
2023/11/29 13:00:12;;;;;;;13.45;8.20;;;;;;;;;;5070324;28;20043;-56
2023/11/29 13:02:38;;;;;;;16.38;9.80;;;;;;;;;;5070814;28;20031;-56
2023/11/29 13:05:05;;;;;;;15.75;11.00;;;;;;;;;;5071196;28;20033;-54
2023/11/29 13:07:31;;;;;;;13.90;9.07;;;;;;;;;;5070709;28;20029;-56
2023/11/29 13:09:57;;;;;;;14.00;9.43;;;;;;;;;;5057738;28;20096;-54
2023/11/29 13:12:23;;;;;;;13.93;8.95;;;;;;;;;;5050698;28;20053;-56
2023/11/29 13:14:49;;;;;;;14.00;9.40;;;;;;;;;;5050948;28;20029;-53
2023/11/29 13:17:15;;;;;;;13.80;9.10;;;;;;;;;;5050993;28;20516;-56
2023/11/29 13:19:41;;;;;;;14.00;9.50;;;;;;;;;;5050770;28;20032;-53
2023/11/29 13:22:08;;;;;;;16.80;10.77;;;;;;;;;;5050369;28;20147;-57
2023/11/29 13:24:34;;;;;;;13.55;8.80;;;;;;;;;;5050528;28;20473;-57
2023/11/29 13:27:00;;;;;;;13.57;8.52;;;;;;;;;;5050411;28;20021;-54
2023/11/29 13:29:26;;;;;;;13.65;8.73;;;;;;;;;;5050416;28;20100;-54
2023/11/29 13:31:52;;;;;;;13.55;8.50;;;;;;;;;;5050596;28;20045;-58
2023/11/29 13:34:18;;;;;;;13.55;8.57;;;;;;;;;;5060359;28;20491;-60
2023/11/29 13:36:44;;;;;;;13.70;8.73;;;;;;;;;;5070610;28;20024;-58
2023/11/29 13:39:11;;;;;;;13.65;8.85;;;;;;;;;;5069313;28;20037;-59
2023/11/29 13:41:38;;;;;;;13.68;8.95;;;;;;;;;;5069971;28;20398;-56
2023/11/29 13:44:04;;;;;;;13.65;8.88;;;;;;;;;;5070198;28;20020;-55
2023/11/29 13:46:31;;;;;;;14.18;9.68;;;;;;;;;;5066496;28;20043;-56
2023/11/29 13:48:57;;;;;;;13.50;8.50;;;;;;;;;;5060706;28;20028;-55
2023/11/29 13:51:23;;;;;;;14.38;9.10;;;;;;;;;;5061707;28;20021;-56
2023/11/29 13:53:49;;;;;;;13.55;8.50;;;;;;;;;;5069898;28;20505;-58
2023/11/29 13:56:16;;;;;;;13.50;8.30;;;;;;;;;;5070047;28;20017;-52
2023/11/29 13:58:45;;;;;;;13.70;8.50;;;;;;;;;;5069065;28;20066;-56
2023/11/29 14:01:13;;;;;;;13.70;8.90;;;;;;;;;;5069367;28;20405;-56
2023/11/29 14:03:39;;;;;;;13.57;8.60;;;;;;;;;;5070053;28;20123;-56
2023/11/29 14:06:05;;;;;;;13.70;8.73;;;;;;;;;;5070122;28;20036;-58
2023/11/29 14:08:31;;;;;;;13.55;8.30;;;;;;;;;;5070787;28;20085;-59
2023/11/29 14:10:57;;;;;;;13.68;8.70;;;;;;;;;;5069840;28;20114;-58
2023/11/29 14:13:28;;;;;;;13.63;8.73;;;;;;;;;;5069705;28;20021;-59